createdAt,value
2022-12-04T00:02:10.437Z,99181.29
2022-12-04T00:04:40.707Z,99182.32
2022-12-04T00:07:13.021Z,99174.81
2022-12-04T00:09:44.813Z,99171.16
2022-12-04T00:12:14.808Z,99171.35
2022-12-04T00:15:23.321Z,99167.47
2022-12-04T00:17:16.748Z,99172.19
2022-12-04T00:19:46.797Z,99158.37
2022-12-04T00:22:18.934Z,99152.39
2022-12-04T00:24:49.726Z,99155.02
2022-12-04T00:27:19.998Z,99159.30
2022-12-04T00:29:50.511Z,99169.59
2022-12-04T00:32:20.889Z,99177.55
2022-12-04T00:34:52.599Z,99182.37
2022-12-04T00:37:22.984Z,99183.42
2022-12-04T00:39:53.904Z,99185.52
2022-12-04T00:42:24.239Z,99182.59
2022-12-04T00:44:54.705Z,99186.56
2022-12-04T00:47:25.225Z,99191.17
2022-12-04T00:49:55.855Z,99200.91
2022-12-04T00:52:26.178Z,99198.91
2022-12-04T00:54:57.403Z,99193.07
2022-12-04T00:57:27.177Z,99188.76
2022-12-04T00:59:57.569Z,99190.45
2022-12-04T01:02:27.911Z,99187.09
2022-12-04T01:04:58.170Z,99191.91
2022-12-04T01:07:35.876Z,99190.24
2022-12-04T01:10:08.627Z,99178.28
2022-12-04T01:12:39.344Z,99182.16
2022-12-04T01:15:10.222Z,99188.42
2022-12-04T01:17:40.433Z,99191.88
2022-12-04T01:20:10.885Z,99193.77
2022-12-04T01:22:40.994Z,99193.23
2022-12-04T01:25:11.964Z,99188.73
2022-12-04T01:27:42.350Z,99186.11
2022-12-04T01:30:13.164Z,99187.28
2022-12-04T01:32:43.712Z,99193.02
2022-12-04T01:35:14.692Z,99187.05
2022-12-04T01:37:45.343Z,99180.58
2022-12-04T01:40:18.764Z,99172.61
2022-12-04T01:42:49.028Z,99172.08
2022-12-04T01:45:45.066Z,99177.75
2022-12-04T01:48:47.770Z,99174.60
2022-12-04T01:51:26.915Z,99171.30
2022-12-04T01:54:11.540Z,99168.34
2022-12-04T01:56:44.325Z,99175.48
2022-12-04T01:59:15.164Z,99166.25
2022-12-04T02:01:50.839Z,99167.08
2022-12-04T02:04:21.166Z,99159.45
2022-12-04T02:06:51.307Z,99157.36
2022-12-04T02:09:26.356Z,99156.83
2022-12-04T02:11:56.840Z,99149.06
2022-12-04T02:14:41.639Z,99147.17
2022-12-04T02:17:21.151Z,99151.05
2022-12-04T02:20:11.068Z,99155.67
2022-12-04T02:23:03.115Z,99154.41
2022-12-04T02:25:52.217Z,99152.22
2022-12-04T02:28:44.488Z,99143.28
2022-12-04T02:31:17.362Z,99133.76
2022-12-04T02:33:52.809Z,99120.67
2022-12-04T02:36:25.157Z,99111.38
2022-12-04T02:39:03.882Z,99109.48
2022-12-04T02:41:45.610Z,99107.49
2022-12-04T02:44:18.743Z,99109.28
2022-12-04T02:46:49.705Z,99103.44
2022-12-04T02:49:22.127Z,99102.58
2022-12-04T02:51:52.349Z,99106.06
2022-12-04T02:54:36.366Z,99082.89
2022-12-04T02:57:08.567Z,99098.29
2022-12-04T02:59:41.365Z,99089.30
2022-12-04T03:02:23.399Z,99098.69
2022-12-04T03:04:54.946Z,99104.89
2022-12-04T03:07:33.898Z,99097.88
2022-12-04T03:10:07.043Z,99103.52
2022-12-04T03:12:40.184Z,99103.95
2022-12-04T03:15:37.293Z,99094.86
2022-12-04T03:18:13.711Z,99099.66
2022-12-04T03:20:44.288Z,99077.16
2022-12-04T03:23:23.244Z,99076.01
2022-12-04T03:26:31.075Z,99075.69
2022-12-04T03:29:29.492Z,99085.44
2022-12-04T03:32:02.356Z,99092.45
2022-12-04T03:34:35.387Z,99088.56
2022-12-04T03:37:20.431Z,99089.27
2022-12-04T03:39:59.176Z,99096.80
2022-12-04T03:42:32.219Z,99102.11
2022-12-04T03:45:08.126Z,99112.47
2022-12-04T03:47:40.930Z,99117.48
2022-12-04T03:50:37.890Z,99125.86
2022-12-04T03:53:14.428Z,99128.47
2022-12-04T03:55:52.979Z,99118.81
2022-12-04T03:58:25.173Z,99109.77
2022-12-04T04:00:54.988Z,99113.74
2022-12-04T04:03:33.570Z,99128.00
2022-12-04T04:06:12.251Z,99127.46
2022-12-04T04:08:43.494Z,99131.95
2022-12-04T04:11:21.292Z,99127.66
2022-12-04T04:14:17.587Z,99131.73
2022-12-04T04:17:07.695Z,99139.69
2022-12-04T04:19:55.817Z,99123.96
2022-12-04T04:22:43.965Z,99120.41
2022-12-04T04:25:19.572Z,99113.06
2022-12-04T04:27:59.827Z,99105.19
2022-12-04T04:30:30.865Z,99103.32
2022-12-04T04:33:17.611Z,99097.01
2022-12-04T04:35:59.139Z,99083.91
2022-12-04T04:38:30.966Z,99090.53
2022-12-04T04:41:19.992Z,99085.28
2022-12-04T04:43:52.818Z,99079.83
2022-12-04T04:46:31.381Z,99075.53
2022-12-04T04:49:02.872Z,99075.20
2022-12-04T04:51:33.013Z,99078.70
2022-12-04T04:54:04.457Z,99070.83
2022-12-04T04:56:34.553Z,99050.09
2022-12-04T04:59:05.483Z,99043.78
2022-12-04T05:01:36.749Z,99038.86
2022-12-04T05:04:08.988Z,99042.41
2022-12-04T05:06:39.590Z,99054.59
2022-12-04T05:09:11.344Z,99070.10
2022-12-04T05:11:42.084Z,99064.13
2022-12-04T05:14:12.516Z,99055.12
2022-12-04T05:16:44.247Z,99028.11
2022-12-04T05:19:31.902Z,99021.59
2022-12-04T05:22:02.059Z,99015.22
2022-12-04T05:24:32.000Z,99017.65
2022-12-04T05:27:02.647Z,99019.02
2022-12-04T05:29:35.945Z,99012.41
2022-12-04T05:32:06.402Z,99009.38
2022-12-04T05:34:37.019Z,99021.85
2022-12-04T05:37:08.496Z,99018.50
2022-12-04T05:39:41.111Z,99016.75
2022-12-04T05:42:13.189Z,99034.25
2022-12-04T05:44:43.473Z,99027.64
2022-12-04T05:47:13.734Z,99027.64
2022-12-04T05:49:44.032Z,99033.30
2022-12-04T05:52:14.745Z,99036.88
2022-12-04T05:54:45.071Z,99030.81
2022-12-04T05:57:15.400Z,99031.55
2022-12-04T05:59:45.639Z,99034.50
2022-12-04T06:02:15.899Z,99041.61
2022-12-04T06:04:46.292Z,99024.64
2022-12-04T06:07:19.688Z,99021.62
2022-12-04T06:09:49.824Z,99008.53
2022-12-04T06:12:20.016Z,98994.82
2022-12-04T06:14:52.046Z,99001.00
2022-12-04T06:17:22.756Z,99013.26
2022-12-04T06:19:54.639Z,99002.56
2022-12-04T06:22:24.906Z,99013.46
2022-12-04T06:24:55.536Z,99011.50
2022-12-04T06:27:30.706Z,99012.23
2022-12-04T06:30:01.561Z,99016.63
2022-12-04T06:32:31.721Z,98998.83
2022-12-04T06:35:02.620Z,98982.48
2022-12-04T06:37:32.705Z,98970.47
2022-12-04T06:40:02.980Z,98979.67
2022-12-04T06:42:34.313Z,98982.00
2022-12-04T06:45:04.561Z,98989.64
2022-12-04T06:47:38.937Z,99000.14
2022-12-04T06:50:09.782Z,99011.03
2022-12-04T06:52:40.535Z,99012.92
2022-12-04T06:55:11.373Z,99004.66
2022-12-04T06:57:41.492Z,99009.48
2022-12-04T07:00:12.159Z,98999.02
2022-12-04T07:02:42.387Z,98997.66
2022-12-04T07:05:12.723Z,98994.31
2022-12-04T07:07:43.206Z,98988.23
2022-12-04T07:10:14.133Z,98989.59
2022-12-04T07:12:46.269Z,98991.09
2022-12-04T07:15:18.228Z,98986.48
2022-12-04T07:17:50.910Z,98968.39
2022-12-04T07:20:21.171Z,98957.05
2022-12-04T07:22:50.992Z,98961.90
2022-12-04T07:25:21.155Z,98963.26
2022-12-04T07:27:51.693Z,98952.88
2022-12-04T07:30:23.438Z,98958.02
2022-12-04T07:32:53.561Z,98951.95
2022-12-04T07:35:24.106Z,98935.62
2022-12-04T07:37:54.110Z,98929.58
2022-12-04T07:40:24.309Z,98932.70
2022-12-04T07:42:54.814Z,98934.30
2022-12-04T07:45:25.091Z,98932.31
2022-12-04T07:47:55.294Z,98937.45
2022-12-04T07:50:25.557Z,98932.74
2022-12-04T07:52:56.022Z,98935.77
2022-12-04T07:55:29.090Z,98931.59
2022-12-04T07:57:58.752Z,98921.77
2022-12-04T08:00:29.212Z,98907.33
2022-12-04T08:02:59.318Z,98923.86
2022-12-04T08:05:30.064Z,98926.28
2022-12-04T08:08:00.189Z,98917.48
2022-12-04T08:10:30.393Z,98917.48
2022-12-04T08:13:00.536Z,98927.74
2022-12-04T08:15:30.843Z,98932.88
2022-12-04T08:18:01.369Z,98944.83
2022-12-04T08:20:31.881Z,98943.14
2022-12-04T08:23:02.236Z,98933.84
2022-12-04T08:25:33.017Z,98941.18
2022-12-04T08:28:03.559Z,98941.48
2022-12-04T08:30:34.420Z,98931.66
2022-12-04T08:33:04.598Z,98912.52
2022-12-04T08:35:35.028Z,98892.31
2022-12-04T08:38:05.001Z,98885.72
2022-12-04T08:40:35.287Z,98872.88
2022-12-04T08:43:08.165Z,98874.24
2022-12-04T08:45:38.715Z,98893.28
2022-12-04T08:48:09.817Z,98904.06
2022-12-04T08:50:40.452Z,98906.45
2022-12-04T08:53:10.676Z,98908.05
2022-12-04T08:55:45.969Z,98915.38
2022-12-04T08:58:18.644Z,98915.17
2022-12-04T09:00:49.916Z,98910.56
2022-12-04T09:03:23.631Z,98904.30
2022-12-04T09:05:53.940Z,98904.50
2022-12-04T09:08:24.148Z,98918.92
2022-12-04T09:10:54.344Z,98914.75
2022-12-04T09:13:24.556Z,98919.35
2022-12-04T09:15:54.731Z,98925.86
2022-12-04T09:18:24.845Z,98899.09
2022-12-04T09:21:00.998Z,98890.41
2022-12-04T09:23:32.132Z,98900.45
2022-12-04T09:26:02.974Z,98901.18
2022-12-04T09:28:33.173Z,98913.12
2022-12-04T09:31:05.889Z,98910.06
2022-12-04T09:33:42.059Z,98915.73
2022-12-04T09:36:13.450Z,98915.64
2022-12-04T09:38:45.379Z,98914.80
2022-12-04T09:41:30.304Z,98909.86
2022-12-04T09:46:42.642Z,98895.55
2022-12-04T09:49:30.805Z,98892.75
2022-12-04T09:52:02.545Z,98886.78
2022-12-04T09:54:34.611Z,98863.67
2022-12-04T09:57:20.199Z,98845.38
2022-12-04T09:59:50.328Z,98806.66
2022-12-04T10:02:38.020Z,98806.66
2022-12-04T10:05:09.569Z,98800.62
2022-12-04T10:07:43.130Z,98772.28
2022-12-04T10:16:27.426Z,98744.48
2022-12-04T10:19:26.541Z,98724.52
2022-12-04T10:22:18.834Z,98720.00
2022-12-04T10:24:56.258Z,98724.50
2022-12-04T10:27:43.679Z,98740.38
2022-12-04T10:30:19.305Z,98752.17
2022-12-04T10:32:49.336Z,98786.05
2022-12-04T10:35:24.880Z,98807.67
2022-12-04T10:37:57.782Z,98812.37
2022-12-04T10:40:39.223Z,98804.22
2022-12-04T10:43:32.168Z,98796.88
2022-12-04T10:46:02.696Z,98797.72
2022-12-04T10:48:38.221Z,98809.22
2022-12-04T10:51:10.478Z,98830.44
2022-12-04T10:53:41.378Z,98832.66
2022-12-04T10:56:23.908Z,98823.14
2022-12-04T10:59:04.440Z,98800.86
2022-12-04T11:01:43.035Z,98771.48
2022-12-04T11:04:15.517Z,98753.47
2022-12-04T11:06:46.002Z,98737.16
2022-12-04T11:09:24.840Z,98702.88
2022-12-04T11:11:55.280Z,98693.11
2022-12-04T11:14:25.959Z,98678.92
2022-12-04T11:17:09.258Z,98672.95
2022-12-04T11:19:40.316Z,98677.13
2022-12-04T11:22:18.580Z,98680.97
2022-12-04T11:24:56.947Z,98680.32
2022-12-04T11:27:30.228Z,98671.19
2022-12-04T11:30:02.083Z,98661.55
2022-12-04T11:32:34.391Z,98628.76
2022-12-04T11:35:20.568Z,98585.65
2022-12-04T11:38:17.656Z,98553.67
2022-12-04T11:41:02.717Z,98428.25
2022-12-04T11:43:41.606Z,98428.25
2022-12-04T11:46:14.743Z,98412.54
2022-12-04T11:48:46.887Z,98382.80
2022-12-04T11:51:46.885Z,98435.00
2022-12-04T11:54:53.126Z,98447.62
2022-12-04T11:57:32.286Z,98453.82
2022-12-04T12:00:37.737Z,98423.84
2022-12-04T12:03:25.257Z,98420.27
2022-12-04T12:06:14.676Z,98422.05
2022-12-04T12:09:22.441Z,98441.88
2022-12-04T12:18:36.895Z,98444.81
2022-12-04T12:21:19.888Z,98474.02
2022-12-04T12:24:21.327Z,98488.60
2022-12-04T12:27:16.239Z,98491.21
2022-12-04T12:29:55.722Z,98556.62
2022-12-04T12:32:45.114Z,98618.75
2022-12-04T12:35:42.507Z,98627.14
2022-12-04T12:38:24.087Z,98589.99
2022-12-04T12:41:09.469Z,98593.14
2022-12-04T12:43:48.511Z,98610.17
2022-12-04T12:46:30.261Z,98621.22
2022-12-04T12:49:21.171Z,98604.77
2022-12-04T12:52:11.989Z,98621.66
2022-12-04T12:54:48.133Z,98622.30
2022-12-04T12:57:21.260Z,98639.63
2022-12-04T12:59:59.330Z,98621.95
2022-12-04T13:02:41.439Z,98644.45
2022-12-04T13:05:13.671Z,98642.92
2022-12-04T13:07:46.533Z,98647.38
2022-12-04T13:10:22.865Z,98668.80
2022-12-04T13:12:58.929Z,98690.00
2022-12-04T13:15:50.189Z,98697.47
2022-12-04T13:18:35.095Z,98710.42
2022-12-04T13:21:07.380Z,98705.03
2022-12-04T13:24:07.393Z,98707.63
2022-12-04T13:26:53.425Z,98722.78
2022-12-04T13:29:41.235Z,98742.59
2022-12-04T13:32:29.750Z,98754.19
2022-12-04T13:35:26.387Z,98754.76
2022-12-04T13:38:21.886Z,98762.80
2022-12-04T13:40:59.886Z,98752.28
2022-12-04T13:43:45.194Z,98748.30
2022-12-04T13:46:33.103Z,98747.28
2022-12-04T13:49:24.234Z,98747.66
2022-12-04T13:51:54.796Z,98759.77
2022-12-04T13:54:37.989Z,98758.23
2022-12-04T13:57:22.983Z,98756.07
2022-12-04T13:59:52.434Z,98755.44
2022-12-04T14:02:25.671Z,98755.12
2022-12-04T14:05:04.625Z,98757.28
2022-12-04T14:07:45.151Z,98753.70
2022-12-04T14:10:20.858Z,98763.23
2022-12-04T14:12:56.424Z,98771.66
2022-12-04T14:15:30.908Z,98774.67
2022-12-04T14:18:13.312Z,98767.02
2022-12-04T14:20:45.152Z,98768.09
2022-12-04T14:23:25.580Z,98770.52
2022-12-04T14:25:57.916Z,98769.41
2022-12-04T14:28:30.093Z,98769.41
2022-12-04T14:31:09.000Z,98774.04
2022-12-04T14:33:42.372Z,98785.19
2022-12-04T14:36:15.563Z,98772.30
2022-12-04T14:38:50.523Z,98769.28
2022-12-04T14:41:28.249Z,98761.30
2022-12-04T14:43:58.295Z,98762.92
2022-12-04T14:46:43.411Z,98775.98
2022-12-04T14:49:28.199Z,98777.60
2022-12-04T14:52:15.977Z,98766.89
2022-12-04T14:55:06.630Z,98761.37
2022-12-04T14:57:52.356Z,98753.94
2022-12-04T15:00:24.096Z,98757.97
2022-12-04T15:02:57.262Z,98742.38
2022-12-04T15:05:29.457Z,98747.23
2022-12-04T15:08:05.316Z,98753.45
2022-12-04T15:10:53.788Z,98744.88
2022-12-04T15:13:30.400Z,98734.11
2022-12-04T15:16:01.897Z,98730.22
2022-12-04T15:18:36.668Z,98717.31
2022-12-04T15:21:03.814Z,98701.20
2022-12-04T15:23:38.898Z,98693.96
2022-12-04T15:26:17.985Z,98681.55
2022-12-04T15:28:55.925Z,98667.01
2022-12-04T15:31:28.746Z,98661.67
2022-12-04T15:34:01.650Z,98662.08
2022-12-04T15:36:48.913Z,98658.02
2022-12-04T15:39:22.185Z,98664.77
2022-12-04T15:41:52.439Z,98676.59
2022-12-04T15:44:33.305Z,98682.21
2022-12-04T15:47:04.630Z,98676.91
2022-12-04T15:49:35.125Z,98669.98
2022-12-04T15:52:11.138Z,98668.75
2022-12-04T15:54:47.450Z,98669.75
2022-12-04T15:57:20.735Z,98663.91
2022-12-04T15:59:51.991Z,98652.42
2022-12-04T16:02:32.817Z,98669.53
2022-12-04T16:05:21.728Z,98670.75
2022-12-04T16:07:53.206Z,98661.59
2022-12-04T16:10:26.014Z,98644.02
2022-12-04T16:13:00.282Z,98643.98
2022-12-04T16:15:36.033Z,98644.41
2022-12-04T16:18:06.776Z,98643.55
2022-12-04T16:20:39.907Z,98645.16
2022-12-04T16:23:11.051Z,98643.27
2022-12-04T16:25:42.675Z,98616.25
2022-12-04T16:28:13.111Z,98641.69
2022-12-04T16:30:43.223Z,98648.50
2022-12-04T16:33:15.435Z,98655.81
2022-12-04T16:35:45.766Z,98661.91
2022-12-04T16:38:17.264Z,98658.54
2022-12-04T16:40:47.572Z,98662.73
2022-12-04T16:43:18.383Z,98662.44
2022-12-04T16:45:55.976Z,98666.53
2022-12-04T16:48:26.359Z,98668.50
2022-12-04T16:50:56.636Z,98665.24
2022-12-04T16:53:26.695Z,98658.64
2022-12-04T16:55:56.859Z,98655.38
2022-12-04T16:58:27.210Z,98657.28
2022-12-04T17:00:58.094Z,98655.09
2022-12-04T17:03:30.657Z,98645.34
2022-12-04T17:06:01.299Z,98643.66
2022-12-04T17:08:31.416Z,98628.37
2022-12-04T17:11:01.526Z,98619.56
2022-12-04T17:13:31.988Z,98599.88
2022-12-04T17:16:02.031Z,98596.11
2022-12-04T17:18:32.187Z,98583.23
2022-12-04T17:21:02.373Z,98560.03
2022-12-04T17:23:32.334Z,98579.69
2022-12-04T17:26:07.408Z,98575.28
2022-12-04T17:28:37.746Z,98552.83
2022-12-04T17:31:10.232Z,98544.20
2022-12-04T17:33:41.674Z,98537.31
2022-12-04T17:36:18.290Z,98532.16
2022-12-04T17:38:48.310Z,98533.22
2022-12-04T17:41:18.469Z,98533.77
2022-12-04T17:43:49.079Z,98514.62
2022-12-04T17:46:22.325Z,98511.04
2022-12-04T17:48:52.332Z,98515.37
2022-12-04T17:51:23.928Z,98518.02
2022-12-04T17:53:54.205Z,98526.20
2022-12-04T17:56:25.062Z,98505.98
2022-12-04T17:58:55.317Z,98490.17
2022-12-04T18:01:27.565Z,98465.98
2022-12-04T18:03:59.229Z,98463.77
2022-12-04T18:06:31.956Z,98451.44
2022-12-04T18:09:03.705Z,98454.41
2022-12-04T18:11:34.319Z,98462.87
2022-12-04T18:14:11.693Z,98447.31
2022-12-04T18:16:39.548Z,98438.28
2022-12-04T18:19:10.827Z,98428.17
2022-12-04T18:21:41.508Z,98407.67
2022-12-04T18:24:12.668Z,98408.79
2022-12-04T18:26:44.698Z,98400.02
2022-12-04T18:29:15.562Z,98389.12
2022-12-04T18:31:45.647Z,98372.20
2022-12-04T18:34:15.790Z,98355.55
2022-12-04T18:36:47.239Z,98350.09
2022-12-04T18:39:19.885Z,98353.61
2022-12-04T18:41:50.162Z,98358.45
2022-12-04T18:44:22.462Z,98349.97
2022-12-04T18:46:52.708Z,98334.16
2022-12-04T18:49:23.031Z,98318.90
2022-12-04T18:51:53.511Z,98309.59
2022-12-04T18:54:25.042Z,98315.35
2022-12-04T18:56:54.939Z,98304.14
2022-12-04T18:59:30.079Z,98276.34
2022-12-04T19:02:00.033Z,98263.77
2022-12-04T19:04:33.083Z,98249.33
2022-12-04T19:07:03.058Z,98236.55
2022-12-04T19:10:10.063Z,98232.78
2022-12-04T19:12:05.980Z,98222.45
2022-12-04T19:14:36.352Z,98212.45
2022-12-04T19:17:06.724Z,98204.28
2022-12-04T19:19:39.935Z,98211.41
2022-12-04T19:22:10.666Z,98215.23
2022-12-04T19:24:41.822Z,98192.94
2022-12-04T19:27:12.978Z,98174.16
2022-12-04T19:29:44.284Z,98165.51
2022-12-04T19:32:14.346Z,98180.02
2022-12-04T19:34:44.702Z,98175.16
2022-12-04T19:37:15.111Z,98168.95
2022-12-04T19:39:45.214Z,98169.23
2022-12-04T19:42:15.408Z,98176.92
2022-12-04T19:44:48.801Z,98174.52
2022-12-04T19:47:17.600Z,98163.62
2022-12-04T19:49:48.080Z,98153.83
2022-12-04T19:52:18.648Z,98142.11
2022-12-04T19:54:50.122Z,98146.48
2022-12-04T19:57:21.418Z,98149.52
2022-12-04T19:59:51.741Z,98155.19
2022-12-04T20:02:22.607Z,98142.11
2022-12-04T20:04:56.955Z,98138.31
2022-12-04T20:07:29.480Z,98130.99
2022-12-04T20:10:02.764Z,98130.67
2022-12-04T20:12:57.670Z,98126.64
2022-12-04T20:15:05.901Z,98121.45
2022-12-04T20:17:36.201Z,98110.56
2022-12-04T20:20:11.511Z,98084.62
2022-12-04T20:22:42.812Z,98093.63
2022-12-04T20:25:13.575Z,98091.83
2022-12-04T20:27:43.462Z,98068.19
2022-12-04T20:30:13.805Z,98054.91
2022-12-04T20:32:43.984Z,98045.31
2022-12-04T20:35:14.404Z,98020.19
2022-12-04T20:37:44.524Z,98019.38
2022-12-04T20:40:15.465Z,98015.84
2022-12-04T20:42:45.705Z,98028.87
2022-12-04T20:45:15.870Z,98040.30
2022-12-04T20:47:46.576Z,98027.22
2022-12-04T20:50:16.852Z,98023.67
2022-12-04T20:52:48.219Z,98020.67
2022-12-04T20:55:18.361Z,98016.53
2022-12-04T20:57:48.886Z,98015.17
2022-12-04T21:00:19.406Z,98026.06
2022-12-04T21:02:49.722Z,98022.21
2022-12-04T21:05:20.206Z,98002.33
2022-12-04T21:07:50.607Z,97990.84
2022-12-04T21:10:20.760Z,98001.14
2022-12-04T21:13:08.377Z,98017.20
2022-12-04T21:15:57.016Z,98013.11
2022-12-04T21:18:30.355Z,98013.88
2022-12-04T21:21:03.355Z,98013.60
2022-12-04T21:23:33.353Z,98026.91
2022-12-04T21:26:03.686Z,98027.45
2022-12-04T21:28:34.454Z,98018.73
2022-12-04T21:31:07.904Z,98019.81
2022-12-04T21:33:38.543Z,98025.03
2022-12-04T21:36:10.929Z,98037.52
2022-12-04T21:38:41.716Z,98039.64
2022-12-04T21:41:14.106Z,98037.77
2022-12-04T21:43:44.386Z,98049.17
2022-12-04T21:46:15.076Z,98063.88
2022-12-04T21:48:45.695Z,98063.88
2022-12-04T21:51:32.939Z,98057.83
2022-12-04T21:53:48.006Z,98044.70
2022-12-04T21:56:18.055Z,98047.42
2022-12-04T21:58:48.288Z,98050.14
2022-12-04T22:01:18.558Z,98041.64
2022-12-04T22:03:48.991Z,98043.00
2022-12-04T22:06:19.477Z,98051.39
2022-12-04T22:08:49.745Z,98052.76
2022-12-04T22:11:22.030Z,98053.02
2022-12-04T22:13:52.471Z,98046.20
2022-12-04T22:16:29.689Z,98036.68
2022-12-04T22:18:59.347Z,98028.80
2022-12-04T22:21:29.519Z,98008.31
2022-12-04T22:24:00.048Z,98015.12
2022-12-04T22:26:30.454Z,98026.84
2022-12-04T22:29:00.461Z,98024.11
2022-12-04T22:31:31.319Z,98031.17
2022-12-04T22:34:02.500Z,98027.86
2022-12-04T22:36:33.411Z,98003.08
2022-12-04T22:39:09.655Z,98020.23
2022-12-04T22:41:35.337Z,97984.56
2022-12-04T22:44:06.987Z,97984.56
2022-12-04T22:46:37.358Z,97990.23
2022-12-04T22:49:07.682Z,97971.72
2022-12-04T22:51:37.988Z,97990.52
2022-12-04T22:54:08.886Z,97991.00
2022-12-04T22:56:40.070Z,97984.25
2022-12-04T22:59:10.122Z,97965.63
2022-12-04T23:01:41.216Z,97978.21
2022-12-04T23:04:12.434Z,97961.34
2022-12-04T23:06:42.668Z,97952.02
2022-12-04T23:09:17.735Z,97957.69
2022-12-04T23:11:48.103Z,97960.18
2022-12-04T23:14:18.160Z,97962.41
2022-12-04T23:16:48.412Z,97964.06
2022-12-04T23:19:19.399Z,97960.03
2022-12-04T23:21:56.382Z,97964.48
2022-12-04T23:24:21.685Z,97958.77
2022-12-04T23:26:52.222Z,97952.28
2022-12-04T23:29:51.499Z,97947.70
2022-12-04T23:31:55.138Z,97960.52
2022-12-04T23:34:25.132Z,97956.20
2022-12-04T23:36:56.841Z,97964.15
2022-12-04T23:39:27.573Z,97971.00
2022-12-04T23:41:57.771Z,97980.33
2022-12-04T23:44:27.820Z,97987.19
2022-12-04T23:46:58.308Z,97984.23
2022-12-04T23:49:28.825Z,97966.28
2022-12-04T23:51:59.166Z,97951.06
2022-12-04T23:54:31.075Z,97956.02
2022-12-04T23:57:08.995Z,97979.23
2022-12-04T23:59:42.543Z,97955.53
